sensor_id;sensor_type;location;lat;lon;timestamp;pressure;altitude;pressure_sealevel;temperature;humidity
65131;BME280;51709;54.912;8.316;2022-12-07T00:02:50;101183.41;;;3.90;72.36
65131;BME280;51709;54.912;8.316;2022-12-07T00:08:11;101183.41;;;3.88;72.40
65131;BME280;51709;54.912;8.316;2022-12-07T00:13:32;101190.97;;;3.82;72.44
65131;BME280;51709;54.912;8.316;2022-12-07T00:18:53;101188.41;;;3.82;72.45
65131;BME280;51709;54.912;8.316;2022-12-07T00:24:14;101185.88;;;3.82;72.35
65131;BME280;51709;54.912;8.316;2022-12-07T00:29:34;101184.03;;;3.70;72.66
65131;BME280;51709;54.912;8.316;2022-12-07T00:34:57;101172.09;;;3.64;72.68
65131;BME280;51709;54.912;8.316;2022-12-07T00:40:19;101165.38;;;3.66;72.50
65131;BME280;51709;54.912;8.316;2022-12-07T00:45:40;101166.22;;;3.67;72.48
65131;BME280;51709;54.912;8.316;2022-12-07T00:51:01;101147.75;;;3.80;72.40
65131;BME280;51709;54.912;8.316;2022-12-07T00:56:24;101154.69;;;3.95;72.05
65131;BME280;51709;54.912;8.316;2022-12-07T01:01:45;101139.59;;;4.08;71.79
65131;BME280;51709;54.912;8.316;2022-12-07T01:07:06;101139.59;;;4.08;71.74
65131;BME280;51709;54.912;8.316;2022-12-07T01:12:26;101138.66;;;3.98;72.06
65131;BME280;51709;54.912;8.316;2022-12-07T01:17:47;101138.63;;;3.96;71.99
65131;BME280;51709;54.912;8.316;2022-12-07T01:23:08;101140.38;;;3.99;71.65
65131;BME280;51709;54.912;8.316;2022-12-07T01:28:29;101139.50;;;3.98;71.76
65131;BME280;51709;54.912;8.316;2022-12-07T01:33:52;101136.13;;;3.99;71.77
65131;BME280;51709;54.912;8.316;2022-12-07T01:39:12;101127.69;;;4.02;71.69
65131;BME280;51709;54.912;8.316;2022-12-07T01:50:33;101123.38;;;3.95;71.84
65131;BME280;51709;54.912;8.316;2022-12-07T01:55:56;101115.91;;;4.06;72.01
65131;BME280;51709;54.912;8.316;2022-12-07T02:01:17;101121.94;;;4.20;71.80
65131;BME280;51709;54.912;8.316;2022-12-07T02:06:39;101114.41;;;4.28;71.44
65131;BME280;51709;54.912;8.316;2022-12-07T02:12:02;101129.59;;;4.22;71.54
65131;BME280;51709;54.912;8.316;2022-12-07T02:17:40;101119.34;;;4.14;71.80
65131;BME280;51709;54.912;8.316;2022-12-07T02:34:46;101097.06;;;3.87;72.39
65131;BME280;51709;54.912;8.316;2022-12-07T02:40:31;101096.34;;;4.00;72.08
65131;BME280;51709;54.912;8.316;2022-12-07T02:45:58;101093.00;;;4.03;72.05
65131;BME280;51709;54.912;8.316;2022-12-07T02:51:22;101086.19;;;4.00;72.22
65131;BME280;51709;54.912;8.316;2022-12-07T03:08:07;101069.47;;;4.21;72.26
65131;BME280;51709;54.912;8.316;2022-12-07T03:13:47;101065.28;;;4.29;72.45
65131;BME280;51709;54.912;8.316;2022-12-07T03:19:13;101058.59;;;4.39;72.20
65131;BME280;51709;54.912;8.316;2022-12-07T03:24:41;101064.53;;;4.39;72.36
65131;BME280;51709;54.912;8.316;2022-12-07T03:30:08;101059.53;;;4.53;72.16
65131;BME280;51709;54.912;8.316;2022-12-07T03:35:40;101047.72;;;4.58;71.88
65131;BME280;51709;54.912;8.316;2022-12-07T03:41:11;101051.13;;;4.60;71.93
65131;BME280;51709;54.912;8.316;2022-12-07T03:52:30;101050.38;;;4.69;71.55
65131;BME280;51709;54.912;8.316;2022-12-07T03:57:55;101052.91;;;4.69;71.48
65131;BME280;51709;54.912;8.316;2022-12-07T04:03:17;101061.31;;;4.62;71.64
65131;BME280;51709;54.912;8.316;2022-12-07T04:08:38;101063.06;;;4.69;71.36
65131;BME280;51709;54.912;8.316;2022-12-07T04:13:58;101060.56;;;4.74;71.02
65131;BME280;51709;54.912;8.316;2022-12-07T04:19:37;101046.13;;;4.71;70.75
65131;BME280;51709;54.912;8.316;2022-12-07T04:24:57;101053.75;;;4.71;70.70
65131;BME280;51709;54.912;8.316;2022-12-07T04:30:18;101041.91;;;4.70;70.69
65131;BME280;51709;54.912;8.316;2022-12-07T04:35:38;101031.72;;;4.72;70.57
65131;BME280;51709;54.912;8.316;2022-12-07T04:41:05;101045.31;;;4.74;70.35
65131;BME280;51709;54.912;8.316;2022-12-07T04:46:27;101036.84;;;4.76;70.27
65131;BME280;51709;54.912;8.316;2022-12-07T04:51:49;101036.00;;;4.76;70.19
65131;BME280;51709;54.912;8.316;2022-12-07T04:57:10;101030.03;;;4.69;70.10
65131;BME280;51709;54.912;8.316;2022-12-07T05:02:31;101028.31;;;4.70;70.12
65131;BME280;51709;54.912;8.316;2022-12-07T05:07:51;101035.13;;;4.77;70.09
65131;BME280;51709;54.912;8.316;2022-12-07T05:13:12;101030.94;;;4.84;69.79
65131;BME280;51709;54.912;8.316;2022-12-07T05:18:32;101042.00;;;4.89;69.59
65131;BME280;51709;54.912;8.316;2022-12-07T05:23:53;101037.78;;;4.92;69.46
65131;BME280;51709;54.912;8.316;2022-12-07T05:29:14;101027.59;;;4.94;69.36
65131;BME280;51709;54.912;8.316;2022-12-07T05:34:35;101010.63;;;4.91;69.32
65131;BME280;51709;54.912;8.316;2022-12-07T05:39:56;101008.97;;;4.93;69.42
65131;BME280;51709;54.912;8.316;2022-12-07T05:45:17;101004.72;;;4.92;69.14
65131;BME280;51709;54.912;8.316;2022-12-07T05:50:37;101001.31;;;4.89;69.18
65131;BME280;51709;54.912;8.316;2022-12-07T05:55:58;101008.13;;;4.96;68.99
65131;BME280;51709;54.912;8.316;2022-12-07T06:01:18;100997.06;;;4.94;68.92
65131;BME280;51709;54.912;8.316;2022-12-07T06:06:39;100999.66;;;4.99;68.85
65131;BME280;51709;54.912;8.316;2022-12-07T06:12:00;101002.19;;;4.97;68.72
65131;BME280;51709;54.912;8.316;2022-12-07T06:17:39;100997.94;;;4.96;68.44
65131;BME280;51709;54.912;8.316;2022-12-07T06:23:00;101003.81;;;4.86;68.29
65131;BME280;51709;54.912;8.316;2022-12-07T06:28:21;101010.59;;;4.81;68.50
65131;BME280;51709;54.912;8.316;2022-12-07T06:33:42;101008.91;;;4.86;67.98
65131;BME280;51709;54.912;8.316;2022-12-07T06:39:04;101002.13;;;4.83;67.86
65131;BME280;51709;54.912;8.316;2022-12-07T06:44:25;101007.19;;;4.80;67.92
65131;BME280;51709;54.912;8.316;2022-12-07T06:49:45;101006.31;;;4.72;67.79
65131;BME280;51709;54.912;8.316;2022-12-07T06:55:06;101002.91;;;4.71;67.84
65131;BME280;51709;54.912;8.316;2022-12-07T07:00:27;101003.72;;;4.69;67.62
65131;BME280;51709;54.912;8.316;2022-12-07T07:05:48;101003.69;;;4.59;66.98
65131;BME280;51709;54.912;8.316;2022-12-07T07:11:09;101004.56;;;4.63;66.89
65131;BME280;51709;54.912;8.316;2022-12-07T07:16:30;100998.59;;;4.59;66.36
65131;BME280;51709;54.912;8.316;2022-12-07T07:21:51;101009.63;;;4.63;66.28
65131;BME280;51709;54.912;8.316;2022-12-07T07:27:11;101004.56;;;4.63;65.93
65131;BME280;51709;54.912;8.316;2022-12-07T07:32:32;100991.81;;;4.58;65.20
65131;BME280;51709;54.912;8.316;2022-12-07T07:37:53;101011.28;;;4.56;64.26
65131;BME280;51709;54.912;8.316;2022-12-07T07:43:13;101024.00;;;4.56;64.13
65131;BME280;51709;54.912;8.316;2022-12-07T07:48:34;101018.06;;;4.56;63.91
65131;BME280;51709;54.912;8.316;2022-12-07T07:53:55;101008.78;;;4.58;63.69
65131;BME280;51709;54.912;8.316;2022-12-07T07:59:16;101024.06;;;4.62;63.57
65131;BME280;51709;54.912;8.316;2022-12-07T08:04:36;101024.91;;;4.66;63.60
65131;BME280;51709;54.912;8.316;2022-12-07T08:09:57;101034.22;;;4.66;63.64
65131;BME280;51709;54.912;8.316;2022-12-07T08:15:17;101017.22;;;4.60;63.20
65131;BME280;51709;54.912;8.316;2022-12-07T08:20:40;101023.97;;;4.52;63.14
65131;BME280;51709;54.912;8.316;2022-12-07T08:26:03;101032.41;;;4.51;62.60
65131;BME280;51709;54.912;8.316;2022-12-07T08:31:24;101036.66;;;4.53;62.99
65131;BME280;51709;54.912;8.316;2022-12-07T08:36:44;101042.63;;;4.52;62.89
65131;BME280;51709;54.912;8.316;2022-12-07T08:42:05;101054.50;;;4.55;62.90
65131;BME280;51709;54.912;8.316;2022-12-07T08:47:25;101049.44;;;4.61;62.87
65131;BME280;51709;54.912;8.316;2022-12-07T08:52:57;101038.47;;;4.65;62.66
65131;BME280;51709;54.912;8.316;2022-12-07T08:58:19;101035.09;;;4.72;62.57
65131;BME280;51709;54.912;8.316;2022-12-07T09:03:40;101039.34;;;4.73;62.31
65131;BME280;51709;54.912;8.316;2022-12-07T09:09:01;101036.81;;;4.73;62.43
65131;BME280;51709;54.912;8.316;2022-12-07T09:14:22;101041.94;;;4.80;62.07
65131;BME280;51709;54.912;8.316;2022-12-07T09:19:42;101053.78;;;4.79;62.00
65131;BME280;51709;54.912;8.316;2022-12-07T09:25:04;101047.91;;;4.88;61.56
65131;BME280;51709;54.912;8.316;2022-12-07T09:30:27;101028.44;;;4.91;61.15
65131;BME280;51709;54.912;8.316;2022-12-07T09:35:49;101032.72;;;5.00;61.03
65131;BME280;51709;54.912;8.316;2022-12-07T09:41:10;101048.06;;;5.13;60.85
65131;BME280;51709;54.912;8.316;2022-12-07T09:46:35;101040.41;;;5.14;61.02
65131;BME280;51709;54.912;8.316;2022-12-07T09:52:01;101033.66;;;5.19;60.78
65131;BME280;51709;54.912;8.316;2022-12-07T09:57:25;101059.13;;;5.24;60.09
65131;BME280;51709;54.912;8.316;2022-12-07T10:02:59;101056.53;;;5.12;60.02
65131;BME280;51709;54.912;8.316;2022-12-07T10:08:20;101059.09;;;5.16;60.12
65131;BME280;51709;54.912;8.316;2022-12-07T10:13:51;101066.75;;;5.19;60.21
65131;BME280;51709;54.912;8.316;2022-12-07T10:19:30;101064.19;;;5.21;60.09
65131;BME280;51709;54.912;8.316;2022-12-07T10:24:51;101070.19;;;5.29;59.50
65131;BME280;51709;54.912;8.316;2022-12-07T10:30:15;101067.66;;;5.34;59.66
65131;BME280;51709;54.912;8.316;2022-12-07T10:35:43;101066.00;;;5.44;59.51
65131;BME280;51709;54.912;8.316;2022-12-07T10:41:07;101052.38;;;5.37;59.13
65131;BME280;51709;54.912;8.316;2022-12-07T10:46:45;101059.16;;;5.32;59.67
65131;BME280;51709;54.912;8.316;2022-12-07T10:57:50;101048.97;;;5.30;59.53
65131;BME280;51709;54.912;8.316;2022-12-07T11:03:31;101045.59;;;5.30;59.37
65131;BME280;51709;54.912;8.316;2022-12-07T11:09:06;101034.56;;;5.26;59.31
65131;BME280;51709;54.912;8.316;2022-12-07T11:20:45;101041.34;;;5.27;59.18
65131;BME280;51709;54.912;8.316;2022-12-07T11:37:56;101029.66;;;6.04;57.36
65131;BME280;51709;54.912;8.316;2022-12-07T11:43:26;101031.38;;;6.09;57.36
65131;BME280;51709;54.912;8.316;2022-12-07T11:48:55;101030.53;;;6.09;57.47
65131;BME280;51709;54.912;8.316;2022-12-07T11:54:22;101031.34;;;6.06;57.52
65131;BME280;51709;54.912;8.316;2022-12-07T11:59:53;101032.22;;;6.14;57.44
65131;BME280;51709;54.912;8.316;2022-12-07T12:05:20;101039.88;;;6.44;57.00
65131;BME280;51709;54.912;8.316;2022-12-07T12:22:16;101021.94;;;6.87;56.65
65131;BME280;51709;54.912;8.316;2022-12-07T12:27:38;101020.19;;;7.03;56.43
65131;BME280;51709;54.912;8.316;2022-12-07T12:33:06;101024.53;;;6.81;57.15
65131;BME280;51709;54.912;8.316;2022-12-07T12:49:43;101020.81;;;7.53;55.80
65131;BME280;51709;54.912;8.316;2022-12-07T13:00:31;100998.16;;;6.77;57.93
65131;BME280;51709;54.912;8.316;2022-12-07T13:11:47;101006.72;;;6.13;59.35
65131;BME280;51709;54.912;8.316;2022-12-07T13:17:55;100999.03;;;5.73;60.04
65131;BME280;51709;54.912;8.316;2022-12-07T13:22:53;100996.47;;;5.65;60.10
65131;BME280;51709;54.912;8.316;2022-12-07T13:28:20;100993.09;;;5.78;59.81
65131;BME280;51709;54.912;8.316;2022-12-07T13:33:47;100994.00;;;6.13;58.94
65131;BME280;51709;54.912;8.316;2022-12-07T13:44:38;100988.00;;;6.59;58.09
65131;BME280;51709;54.912;8.316;2022-12-07T13:50:24;100985.44;;;6.68;58.09
65131;BME280;51709;54.912;8.316;2022-12-07T13:55:46;100986.28;;;6.67;58.26
65131;BME280;51709;54.912;8.316;2022-12-07T14:01:13;100980.38;;;6.57;58.65
65131;BME280;51709;54.912;8.316;2022-12-07T14:06:34;100971.84;;;6.60;58.68
65131;BME280;51709;54.912;8.316;2022-12-07T14:11:56;100978.69;;;6.52;59.05
65131;BME280;51709;54.912;8.316;2022-12-07T14:17:19;100979.56;;;6.34;59.43
65131;BME280;51709;54.912;8.316;2022-12-07T14:22:42;100977.88;;;6.17;59.81
65131;BME280;51709;54.912;8.316;2022-12-07T14:28:03;100979.56;;;6.04;60.04
65131;BME280;51709;54.912;8.316;2022-12-07T14:33:24;100973.59;;;5.82;60.40
65131;BME280;51709;54.912;8.316;2022-12-07T14:38:45;100982.91;;;5.67;60.57
65131;BME280;51709;54.912;8.316;2022-12-07T14:44:11;100975.22;;;5.46;60.84
65131;BME280;51709;54.912;8.316;2022-12-07T14:49:52;100972.63;;;5.19;61.28
65131;BME280;51709;54.912;8.316;2022-12-07T14:55:28;100965.75;;;4.98;61.52
65131;BME280;51709;54.912;8.316;2022-12-07T15:00:49;100966.50;;;4.80;61.56
65131;BME280;51709;54.912;8.316;2022-12-07T15:06:13;100962.16;;;4.57;61.89
65131;BME280;51709;54.912;8.316;2022-12-07T15:11:34;100956.09;;;4.37;62.17
65131;BME280;51709;54.912;8.316;2022-12-07T15:17:02;100954.25;;;4.15;62.46
65131;BME280;51709;54.912;8.316;2022-12-07T15:22:43;100963.44;;;3.98;62.63
65131;BME280;51709;54.912;8.316;2022-12-07T15:28:03;100962.50;;;3.88;62.59
65131;BME280;51709;54.912;8.316;2022-12-07T15:33:24;100955.69;;;3.84;62.60
65131;BME280;51709;54.912;8.316;2022-12-07T15:38:45;100950.50;;;3.68;62.75
65131;BME280;51709;54.912;8.316;2022-12-07T15:44:25;100943.56;;;3.52;63.08
65131;BME280;51709;54.912;8.316;2022-12-07T15:50:09;100927.44;;;3.44;63.10
65131;BME280;51709;54.912;8.316;2022-12-07T15:55:30;100940.94;;;3.43;63.20
65131;BME280;51709;54.912;8.316;2022-12-07T16:00:51;100931.50;;;3.31;63.21
65131;BME280;51709;54.912;8.316;2022-12-07T16:06:14;100919.44;;;3.05;63.65
65131;BME280;51709;54.912;8.316;2022-12-07T16:11:35;100919.25;;;2.91;64.13
65131;BME280;51709;54.912;8.316;2022-12-07T16:16:56;100913.38;;;2.93;63.92
65131;BME280;51709;54.912;8.316;2022-12-07T16:22:17;100913.34;;;2.90;63.82
65131;BME280;51709;54.912;8.316;2022-12-07T16:27:37;100904.81;;;2.84;64.15
65131;BME280;51709;54.912;8.316;2022-12-07T16:32:58;100901.19;;;2.66;64.47
65131;BME280;51709;54.912;8.316;2022-12-07T16:38:22;100894.53;;;2.73;64.31
65131;BME280;51709;54.912;8.316;2022-12-07T16:43:42;100888.78;;;2.85;63.94
65131;BME280;51709;54.912;8.316;2022-12-07T16:49:04;100887.94;;;2.87;63.82
65131;BME280;51709;54.912;8.316;2022-12-07T16:54:24;100889.59;;;2.84;63.97
65131;BME280;51709;54.912;8.316;2022-12-07T16:59:45;100880.25;;;2.78;64.21
65131;BME280;51709;54.912;8.316;2022-12-07T17:05:06;100878.63;;;2.86;63.99
65131;BME280;51709;54.912;8.316;2022-12-07T17:10:27;100870.16;;;2.83;64.20
65131;BME280;51709;54.912;8.316;2022-12-07T17:16:04;100867.47;;;2.72;64.42
65131;BME280;51709;54.912;8.316;2022-12-07T17:21:25;100861.53;;;2.68;64.41
65131;BME280;51709;54.912;8.316;2022-12-07T17:26:46;100860.66;;;2.63;64.68
65131;BME280;51709;54.912;8.316;2022-12-07T17:32:07;100863.91;;;2.54;64.68
65131;BME280;51709;54.912;8.316;2022-12-07T17:37:27;100864.59;;;2.41;65.16
65131;BME280;51709;54.912;8.316;2022-12-07T17:50:44;100851.75;;;2.30;65.23
65131;BME280;51709;54.912;8.316;2022-12-07T17:56:25;100834.97;;;2.35;65.16
65131;BME280;51709;54.912;8.316;2022-12-07T18:01:48;100832.47;;;2.38;65.07
65131;BME280;51709;54.912;8.316;2022-12-07T18:07:09;100814.75;;;2.40;65.14
65131;BME280;51709;54.912;8.316;2022-12-07T18:12:30;100818.16;;;2.43;65.11
65131;BME280;51709;54.912;8.316;2022-12-07T18:17:50;100825.81;;;2.46;65.17
65131;BME280;51709;54.912;8.316;2022-12-07T18:23:11;100813.19;;;2.51;65.17
65131;BME280;51709;54.912;8.316;2022-12-07T18:28:31;100807.41;;;2.61;65.01
65131;BME280;51709;54.912;8.316;2022-12-07T18:33:52;100804.91;;;2.66;65.07
65131;BME280;51709;54.912;8.316;2022-12-07T18:39:16;100799.84;;;2.63;65.32
65131;BME280;51709;54.912;8.316;2022-12-07T18:44:38;100793.88;;;2.59;65.43
65131;BME280;51709;54.912;8.316;2022-12-07T18:49:58;100782.84;;;2.54;65.63
65131;BME280;51709;54.912;8.316;2022-12-07T18:55:22;100777.78;;;2.54;65.71
65131;BME280;51709;54.912;8.316;2022-12-07T19:00:42;100762.44;;;2.43;66.18
65131;BME280;51709;54.912;8.316;2022-12-07T19:06:06;100758.19;;;2.41;66.30
65131;BME280;51709;54.912;8.316;2022-12-07T19:11:30;100758.25;;;2.45;66.16
65131;BME280;51709;54.912;8.316;2022-12-07T19:17:11;100753.22;;;2.50;66.14
65131;BME280;51709;54.912;8.316;2022-12-07T19:22:32;100746.50;;;2.54;66.09
65131;BME280;51709;54.912;8.316;2022-12-07T19:27:52;100747.34;;;2.51;66.30
65131;BME280;51709;54.912;8.316;2022-12-07T19:33:13;100751.63;;;2.57;66.31
65131;BME280;51709;54.912;8.316;2022-12-07T19:38:33;100736.53;;;2.71;65.98
65131;BME280;51709;54.912;8.316;2022-12-07T19:43:54;100728.91;;;2.66;66.22
65131;BME280;51709;54.912;8.316;2022-12-07T19:49:16;100722.22;;;2.73;66.17
65131;BME280;51709;54.912;8.316;2022-12-07T19:54:38;100726.25;;;2.54;66.72
65131;BME280;51709;54.912;8.316;2022-12-07T19:59:58;100721.25;;;2.58;66.77
65131;BME280;51709;54.912;8.316;2022-12-07T20:05:19;100719.44;;;2.45;66.95
65131;BME280;51709;54.912;8.316;2022-12-07T20:10:41;100717.63;;;2.35;67.29
65131;BME280;51709;54.912;8.316;2022-12-07T20:16:03;100712.59;;;2.39;67.27
65131;BME280;51709;54.912;8.316;2022-12-07T20:21:39;100707.59;;;2.45;67.32
65131;BME280;51709;54.912;8.316;2022-12-07T20:26:59;100682.19;;;2.38;67.31
65131;BME280;51709;54.912;8.316;2022-12-07T20:32:20;100682.09;;;2.28;67.69
65131;BME280;51709;54.912;8.316;2022-12-07T20:37:40;100674.38;;;2.18;67.88
65131;BME280;51709;54.912;8.316;2022-12-07T20:43:01;100676.72;;;2.00;68.49
65131;BME280;51709;54.912;8.316;2022-12-07T20:48:22;100661.44;;;1.91;68.54
65131;BME280;51709;54.912;8.316;2022-12-07T20:53:43;100655.59;;;1.94;68.70
65131;BME280;51709;54.912;8.316;2022-12-07T20:59:06;100637.72;;;1.83;68.99
65131;BME280;51709;54.912;8.316;2022-12-07T21:04:28;100640.16;;;1.74;69.07
65131;BME280;51709;54.912;8.316;2022-12-07T21:09:51;100631.63;;;1.67;69.45
65131;BME280;51709;54.912;8.316;2022-12-07T21:15:11;100629.94;;;1.64;69.40
65131;BME280;51709;54.912;8.316;2022-12-07T21:20:32;100627.25;;;1.55;69.75
65131;BME280;51709;54.912;8.316;2022-12-07T21:25:53;100622.19;;;1.52;69.76
65131;BME280;51709;54.912;8.316;2022-12-07T21:31:14;100604.34;;;1.43;70.27
65131;BME280;51709;54.912;8.316;2022-12-07T21:36:35;100606.00;;;1.39;70.34
65131;BME280;51709;54.912;8.316;2022-12-07T21:41:57;100596.69;;;1.35;70.32
65131;BME280;51709;54.912;8.316;2022-12-07T21:47:17;100594.94;;;1.29;70.43
65131;BME280;51709;54.912;8.316;2022-12-07T21:52:38;100587.16;;;1.15;70.93
65131;BME280;51709;54.912;8.316;2022-12-07T21:57:59;100577.75;;;1.06;71.24
65131;BME280;51709;54.912;8.316;2022-12-07T22:03:19;100583.59;;;1.02;71.21
65131;BME280;51709;54.912;8.316;2022-12-07T22:08:41;100577.56;;;0.92;71.52
65131;BME280;51709;54.912;8.316;2022-12-07T22:14:03;100565.69;;;0.85;71.87
65131;BME280;51709;54.912;8.316;2022-12-07T22:19:43;100582.56;;;0.88;71.59
65131;BME280;51709;54.912;8.316;2022-12-07T22:25:04;100566.69;;;0.98;71.52
65131;BME280;51709;54.912;8.316;2022-12-07T22:30:25;100560.59;;;0.82;71.78
65131;BME280;51709;54.912;8.316;2022-12-07T22:35:51;100551.19;;;0.73;72.29
65131;BME280;51709;54.912;8.316;2022-12-07T22:41:18;100548.59;;;0.69;72.32
65131;BME280;51709;54.912;8.316;2022-12-07T22:46:42;100557.16;;;0.79;71.97
65131;BME280;51709;54.912;8.316;2022-12-07T22:52:03;100546.19;;;0.76;72.14
65131;BME280;51709;54.912;8.316;2022-12-07T22:57:23;100540.38;;;0.84;72.18
65131;BME280;51709;54.912;8.316;2022-12-07T23:02:44;100538.66;;;0.80;72.39
65131;BME280;51709;54.912;8.316;2022-12-07T23:08:05;100532.72;;;0.76;72.54
65131;BME280;51709;54.912;8.316;2022-12-07T23:13:25;100519.22;;;0.75;72.43
65131;BME280;51709;54.912;8.316;2022-12-07T23:18:52;100522.53;;;0.71;72.86
65131;BME280;51709;54.912;8.316;2022-12-07T23:24:14;100510.84;;;0.78;72.47
65131;BME280;51709;54.912;8.316;2022-12-07T23:29:34;100501.56;;;0.77;72.60
65131;BME280;51709;54.912;8.316;2022-12-07T23:34:55;100504.13;;;0.79;72.63
65131;BME280;51709;54.912;8.316;2022-12-07T23:40:15;100500.66;;;0.73;72.92
65131;BME280;51709;54.912;8.316;2022-12-07T23:45:36;100490.56;;;0.70;73.17
65131;BME280;51709;54.912;8.316;2022-12-07T23:50:58;100488.84;;;0.71;73.12
65131;BME280;51709;54.912;8.316;2022-12-07T23:56:21;100481.22;;;0.68;73.24
